Time;durP1;ratioP1;P1;durP2;ratioP2;P2;SDS_P1;SDS_P2;PMS_P1;PMS_P2;Temp;Humidity;BMP_temperature;BMP_pressure;BME280_temperature;BME280_humidity;BME280_pressure;Samples;Min_cycle;Max_cycle;Signal;HPM_P1;HPM_P2
2022/09/25 00:00:26;;;;;;;;;5.00;5.00;;;;;15.34;66.79;100824.56;5086947;27;45361;-58
2022/09/25 00:02:51;;;;;;;;;3.00;3.00;;;;;15.28;66.64;100825.03;5076442;27;46650;-56
2022/09/25 00:05:22;;;;;;;;;6.33;5.33;;;;;15.36;66.13;100832.50;5076285;28;45601;-58
2022/09/25 00:07:51;;;;;;;;;8.67;6.00;;;;;15.34;66.06;100829.94;5076444;27;45571;-57
2022/09/25 00:10:17;;;;;;;;;6.00;4.00;;;;;15.30;66.37;100811.53;5076624;27;45411;-57
2022/09/25 00:12:43;;;;;;;;;6.00;6.00;;;;;15.42;65.97;100831.22;5075647;27;46283;-55
2022/09/25 00:15:09;;;;;;;;;6.33;5.33;;;;;15.43;66.03;100839.16;5076836;27;45531;-55
2022/09/25 00:17:34;;;;;;;;;4.00;4.00;;;;;15.45;66.20;100841.72;5080165;27;45506;-54
2022/09/25 00:20:00;;;;;;;;;4.67;3.67;;;;;15.45;66.12;100847.06;5076398;27;45328;-58
2022/09/25 00:22:26;;;;;;;;;4.67;3.33;;;;;15.43;66.05;100844.50;5075148;28;45417;-56
2022/09/25 00:24:52;;;;;;;;;5.33;4.00;;;;;15.36;66.88;100848.59;5077922;28;45349;-55
2022/09/25 00:27:18;;;;;;;;;4.67;3.00;;;;;15.29;66.57;100847.31;5079333;27;45440;-56
2022/09/25 00:29:44;;;;;;;;;3.67;3.67;;;;;15.17;67.13;100849.06;5079324;27;45361;-55
2022/09/25 00:32:11;;;;;;;;;3.67;3.33;;;;;15.07;67.63;100850.66;5088441;27;45386;-56
2022/09/25 00:34:37;;;;;;;;;6.00;3.00;;;;;15.02;67.92;100852.81;5099690;27;45431;-56
2022/09/25 00:37:03;;;;;;;;;3.00;3.00;;;;;14.97;67.50;100850.47;5099830;27;45353;-56
2022/09/25 00:39:29;;;;;;;;;5.00;4.00;;;;;14.98;67.69;100844.16;5100374;27;45225;-56
2022/09/25 00:41:55;;;;;;;;;4.00;4.00;;;;;14.96;67.54;100840.69;5100042;27;47178;-56
2022/09/25 00:44:57;;;;;;;;;6.00;4.67;;;;;14.97;67.80;100841.56;5099141;27;45172;-56
2022/09/25 00:47:49;;;;;;;;;5.33;5.33;;;;;14.95;67.77;100843.50;5080711;27;45388;-55
2022/09/25 00:50:21;;;;;;;;;5.67;5.67;;;;;14.96;67.84;100846.06;5048476;28;45357;-54
2022/09/25 00:52:48;;;;;;;;;9.00;9.00;;;;;14.76;67.70;100827.88;5058174;28;45335;-61
2022/09/25 00:55:15;;;;;;;;;6.67;6.00;;;;;14.85;67.49;100837.94;5058219;28;45326;-56
2022/09/25 00:57:45;;;;;;;;;9.00;5.00;;;;;14.84;67.86;100833.53;5058528;28;45333;-54
2022/09/25 01:00:12;;;;;;;;;9.33;5.00;;;;;14.84;68.02;100838.03;5058655;28;45327;-56
2022/09/25 01:02:41;;;;;;;;;4.33;3.67;;;;;14.86;67.71;100841.47;5077350;27;46369;-55
2022/09/25 01:05:14;;;;;;;;;4.00;4.00;;;;;14.85;67.87;100837.94;5084946;27;45403;-55
2022/09/25 01:07:43;;;;;;;;;11.00;5.67;;;;;14.85;68.14;100834.41;5093991;27;45503;-56
2022/09/25 01:10:10;;;;;;;;;4.33;4.00;;;;;14.78;67.85;100825.09;5094598;27;45200;-55
2022/09/25 01:12:40;;;;;;;;;3.33;3.00;;;;;14.78;67.98;100841.16;5077528;28;47517;-57
2022/09/25 01:15:08;;;;;;;;;4.33;4.00;;;;;14.72;68.33;100837.94;5079024;27;45399;-56
2022/09/25 01:17:47;;;;;;;;;3.67;3.67;;;;;14.65;68.95;100841.13;5079079;27;45566;-55
2022/09/25 01:20:27;;;;;;;;;3.00;3.00;;;;;14.64;68.97;100834.94;5098758;27;45574;-54
2022/09/25 01:23:30;;;;;;;;;5.33;4.00;;;;;14.66;68.90;100843.69;5075887;27;47732;-57
2022/09/25 01:26:07;;;;;;;;;7.33;5.67;;;;;14.60;68.88;100844.16;5076769;27;45392;-56
2022/09/25 01:28:45;;;;;;;;;9.00;7.67;;;;;14.51;69.22;100841.22;5068747;27;45312;-56
2022/09/25 01:31:19;;;;;;;;;6.67;6.67;;;;;14.54;69.51;100838.34;5071414;27;45379;-57
2022/09/25 01:33:56;;;;;;;;;10.00;6.33;;;;;14.57;68.67;100844.31;5080217;27;46372;-55
2022/09/25 01:36:35;;;;;;;;;10.67;9.67;;;;;14.60;68.59;100838.78;5077643;27;45754;-55
2022/09/25 01:39:15;;;;;;;;;11.00;10.00;;;;;14.67;69.23;100837.38;5078144;27;45513;-54
2022/09/25 01:41:52;;;;;;;;;7.33;7.33;;;;;14.67;69.08;100834.72;5078119;27;45234;-56
2022/09/25 01:44:27;;;;;;;;;8.00;5.67;;;;;14.65;68.86;100828.59;5078190;28;46340;-57
2022/09/25 01:46:58;;;;;;;;;6.33;5.00;;;;;14.53;69.15;100829.44;5078330;27;45693;-56
2022/09/25 01:49:37;;;;;;;;;8.67;7.33;;;;;14.51;69.72;100831.38;5085742;27;45514;-56
2022/09/25 01:52:09;;;;;;;;;8.67;8.00;;;;;14.53;69.24;100836.63;5077110;28;45227;-56
2022/09/25 01:54:47;;;;;;;;;5.67;4.33;;;;;14.55;69.29;100830.19;5077887;27;45361;-56
2022/09/25 01:57:25;;;;;;;;;4.00;4.00;;;;;14.63;69.09;100833.22;5077885;27;45317;-57
2022/09/25 02:00:04;;;;;;;;;7.33;7.33;;;;;14.69;68.70;100832.78;5078138;27;45290;-57
2022/09/25 02:02:35;;;;;;;;;5.33;4.00;;;;;14.73;68.37;100834.31;5077390;27;45502;-57
2022/09/25 02:05:10;;;;;;;;;5.67;5.67;;;;;14.70;68.86;100839.00;5078053;27;46032;-55
2022/09/25 02:07:43;;;;;;;;;4.33;4.33;;;;;14.64;69.98;100845.63;5072923;27;45532;-56
2022/09/25 02:10:15;;;;;;;;;8.00;5.33;;;;;14.58;69.70;100843.38;5073182;28;45433;-57
2022/09/25 02:12:48;;;;;;;;;5.33;5.33;;;;;14.55;69.57;100842.72;5068130;28;45230;-56
2022/09/25 02:15:19;;;;;;;;;5.00;5.00;;;;;14.62;69.61;100839.53;5076485;27;46668;-57
2022/09/25 02:20:58;;;;;;;;;6.33;6.33;;;;;14.61;69.52;100840.50;5077992;28;45465;-56
2022/09/25 02:23:33;;;;;;;;;5.67;5.67;;;;;14.65;69.17;100839.31;5076554;27;45428;-55
2022/09/25 02:25:58;;;;;;;;;6.33;5.00;;;;;14.58;69.81;100840.69;5076286;28;46242;-57
2022/09/25 02:28:24;;;;;;;;;5.00;5.00;;;;;14.57;70.21;100838.13;5077012;27;45351;-56
2022/09/25 02:30:53;;;;;;;;;8.33;8.33;;;;;14.56;70.08;100842.63;5075861;27;45476;-57
2022/09/25 02:33:19;;;;;;;;;6.00;6.00;;;;;14.55;70.00;100837.38;5077800;27;45226;-56
2022/09/25 02:35:44;;;;;;;;;9.67;8.33;;;;;14.56;70.31;100847.13;5076511;27;45397;-56
2022/09/25 02:38:10;;;;;;;;;5.67;5.67;;;;;14.44;70.75;100843.44;5075365;28;45322;-56
2022/09/25 02:41:17;;;;;;;;;8.00;8.00;;;;;14.37;71.03;100836.78;5097310;27;45365;-56
2022/09/25 02:44:09;;;;;;;;;6.67;6.33;;;;;14.36;71.00;100835.94;5097279;27;45226;-56
2022/09/25 02:46:52;;;;;;;;;8.67;7.00;;;;;14.35;71.11;100838.72;5086838;27;46365;-53
2022/09/25 02:49:42;;;;;;;;;13.00;7.67;;;;;14.20;71.58;100845.09;5077630;27;45327;-56
2022/09/25 02:52:19;;;;;;;;;7.33;7.33;;;;;14.18;72.05;100847.84;5077004;27;45601;-56
2022/09/25 02:54:53;;;;;;;;;8.67;8.67;;;;;14.16;71.70;100855.13;5077590;27;45442;-55
2022/09/25 02:57:24;;;;;;;;;9.67;7.33;;;;;14.18;71.27;100847.84;5077158;27;46297;-55
2022/09/25 02:59:55;;;;;;;;;10.33;7.00;;;;;14.22;71.36;100859.22;5075414;28;45247;-55
2022/09/25 03:02:22;;;;;;;;;6.33;6.33;;;;;14.13;72.30;100856.19;5076796;27;45450;-56
2022/09/25 03:04:49;;;;;;;;;11.00;9.67;;;;;14.07;72.23;100851.28;5076742;27;45368;-57
2022/09/25 03:07:16;;;;;;;;;8.33;6.33;;;;;14.12;72.66;100853.63;5091408;27;47043;-55
2022/09/25 03:09:45;;;;;;;;;10.33;9.00;;;;;14.18;71.80;100854.06;5076769;27;45283;-54
2022/09/25 03:12:12;;;;;;;;;3.33;3.33;;;;;14.15;72.17;100864.13;5073588;27;45321;-55
2022/09/25 03:14:37;;;;;;;;;6.33;6.33;;;;;14.15;71.96;100853.41;5106072;27;45615;-56
2022/09/25 03:17:05;;;;;;;;;9.67;6.33;;;;;14.11;72.54;100849.25;5087232;27;46056;-54
2022/09/25 03:19:32;;;;;;;;;7.67;7.67;;;;;14.12;72.01;100854.47;5076556;27;45302;-54
2022/09/25 03:21:57;;;;;;;;;10.67;8.33;;;;;14.12;72.30;100867.84;5092495;27;45404;-55
2022/09/25 03:24:23;;;;;;;;;11.33;8.00;;;;;14.05;72.52;100858.50;5075578;28;45310;-58
2022/09/25 03:26:48;;;;;;;;;12.33;9.00;;;;;14.11;72.63;100873.31;5076857;27;46110;-56
2022/09/25 03:29:16;;;;;;;;;11.00;9.33;;;;;14.10;72.26;100867.09;5081538;27;45973;-55
2022/09/25 03:31:42;;;;;;;;;11.00;10.67;;;;;14.11;72.51;100879.53;5085060;27;45524;-55
2022/09/25 03:34:13;;;;;;;;;9.67;8.67;;;;;14.14;71.49;100871.28;5088994;27;45739;-56
2022/09/25 03:36:39;;;;;;;;;10.67;9.00;;;;;14.23;72.13;100879.66;5075104;27;45619;-55
2022/09/25 03:39:05;;;;;;;;;8.67;8.00;;;;;14.25;71.87;100875.94;5076065;27;45393;-55
2022/09/25 03:41:33;;;;;;;;;8.00;8.00;;;;;14.22;71.47;100869.94;5074717;28;45476;-55
2022/09/25 03:43:59;;;;;;;;;10.00;8.67;;;;;14.20;71.43;100877.22;5073463;27;45243;-56
2022/09/25 03:46:27;;;;;;;;;16.67;9.00;;;;;14.25;71.31;100877.75;5076121;27;45406;-55
2022/09/25 03:48:54;;;;;;;;;12.00;9.00;;;;;14.23;71.61;100869.81;5075398;27;45411;-55
2022/09/25 03:51:20;;;;;;;;;9.00;8.33;;;;;14.20;71.62;100877.22;5074800;27;45495;-56
2022/09/25 03:53:47;;;;;;;;;12.00;10.67;;;;;14.17;71.97;100873.75;5071179;27;45378;-55
2022/09/25 03:56:16;;;;;;;;;9.00;8.00;;;;;14.15;71.88;100875.66;5075996;27;45495;-55
2022/09/25 03:58:42;;;;;;;;;7.00;7.00;;;;;14.21;71.34;100878.91;5092538;27;45504;-54
2022/09/25 04:01:07;;;;;;;;;11.33;8.33;;;;;14.21;71.02;100873.56;5078602;27;45429;-56
2022/09/25 04:03:33;;;;;;;;;9.67;8.33;;;;;14.21;70.85;100865.53;5079915;27;45215;-55
2022/09/25 04:06:05;;;;;;;;;10.00;9.67;;;;;14.28;71.12;100881.06;5085207;27;46206;-56
2022/09/25 04:08:32;;;;;;;;;8.33;6.00;;;;;14.31;71.01;100878.16;5075523;27;45582;-57
2022/09/25 04:11:00;;;;;;;;;7.67;6.33;;;;;14.28;71.38;100873.03;5079820;27;45377;-57
2022/09/25 04:13:28;;;;;;;;;9.00;9.00;;;;;14.31;70.99;100878.16;5078620;27;45741;-56
2022/09/25 04:15:55;;;;;;;;;8.67;5.33;;;;;14.38;70.59;100887.53;5079607;27;45371;-57
2022/09/25 04:18:21;;;;;;;;;9.33;5.67;;;;;14.35;70.59;100879.72;5081052;27;45597;-55
2022/09/25 04:20:47;;;;;;;;;7.00;6.33;;;;;14.31;71.40;100885.34;5090945;27;45409;-56
2022/09/25 04:23:12;;;;;;;;;9.00;5.33;;;;;14.28;71.17;100882.88;5092609;27;45311;-55
2022/09/25 04:25:38;;;;;;;;;15.00;9.00;;;;;14.31;71.44;100880.84;5079246;27;45998;-56
2022/09/25 04:28:04;;;;;;;;;10.00;10.00;;;;;14.23;71.32;100871.63;5079218;28;45457;-56
2022/09/25 04:30:29;;;;;;;;;8.33;6.33;;;;;14.32;71.13;100884.38;5079619;27;45487;-55
2022/09/25 04:35:42;;;;;;;;;12.00;10.67;;;;;14.31;70.87;100874.63;5077740;28;45555;-56
2022/09/25 04:38:08;;;;;;;;;11.00;9.67;;;;;14.34;70.92;100896.72;5089193;27;45417;-55
2022/09/25 04:40:35;;;;;;;;;14.00;12.00;;;;;14.27;71.43;100892.72;5087945;27;45410;-56
2022/09/25 04:43:02;;;;;;;;;13.33;12.33;;;;;14.18;71.56;100890.66;5079231;27;45230;-62
2022/09/25 04:45:29;;;;;;;;;12.00;12.00;;;;;14.22;71.36;100883.31;5078790;27;46192;-55
2022/09/25 04:47:57;;;;;;;;;16.00;13.67;;;;;14.29;70.88;100890.81;5094512;27;45413;-57
2022/09/25 04:50:24;;;;;;;;;15.00;11.33;;;;;14.25;70.83;100891.13;5076143;28;45388;-57
2022/09/25 04:52:50;;;;;;;;;17.33;11.00;;;;;14.27;70.42;100892.72;5079047;27;45607;-54
2022/09/25 04:55:23;;;;;;;;;16.67;10.33;;;;;14.30;70.73;100899.69;5082816;27;46141;-56
2022/09/25 04:57:49;;;;;;;;;13.33;12.00;;;;;14.30;70.56;100897.88;5093510;27;45301;-55
2022/09/25 05:00:17;;;;;;;;;16.33;12.00;;;;;14.17;70.76;100905.84;5074170;27;45421;-55
2022/09/25 05:02:43;;;;;;;;;11.00;9.67;;;;;14.08;70.97;100911.81;5079218;27;45684;-56
2022/09/25 05:05:09;;;;;;;;;16.00;15.00;;;;;14.15;70.97;100917.59;5078774;28;45477;-56
2022/09/25 05:07:34;;;;;;;;;12.33;11.00;;;;;14.08;70.38;100911.81;5090509;27;45555;-55
2022/09/25 05:10:00;;;;;;;;;16.00;13.33;;;;;14.05;70.81;100922.69;5077655;27;45735;-56
2022/09/25 05:12:25;;;;;;;;;14.33;12.67;;;;;14.07;70.88;100920.81;5079446;27;45453;-61
2022/09/25 05:14:50;;;;;;;;;10.33;10.33;;;;;14.01;70.21;100905.16;5078603;27;45448;-56
2022/09/25 05:17:16;;;;;;;;;11.00;11.00;;;;;14.09;70.12;100929.59;5103312;27;45455;-55
2022/09/25 05:19:41;;;;;;;;;13.00;10.33;;;;;13.97;70.56;100924.16;5087909;27;45410;-57
2022/09/25 05:22:06;;;;;;;;;14.33;10.00;;;;;13.86;71.11;100924.88;5079295;28;45377;-56
2022/09/25 05:24:32;;;;;;;;;13.00;12.33;;;;;13.88;70.47;100925.63;5078160;28;46437;-55
2022/09/25 05:26:58;;;;;;;;;10.67;10.67;;;;;13.83;70.92;100925.91;5076645;27;45460;-56
2022/09/25 05:29:23;;;;;;;;;11.33;11.33;;;;;13.78;70.89;100933.34;5077085;27;45500;-56
2022/09/25 05:31:48;;;;;;;;;16.00;10.00;;;;;13.78;70.63;100933.34;5081775;27;45463;-56
2022/09/25 05:34:15;;;;;;;;;14.67;12.00;;;;;13.83;70.91;100927.75;5098235;27;46269;-56
2022/09/25 05:36:41;;;;;;;;;11.33;10.00;;;;;13.82;70.85;100937.56;5088599;27;45452;-55
2022/09/25 05:39:08;;;;;;;;;9.00;9.00;;;;;13.81;70.86;100935.00;5078262;27;45419;-54
2022/09/25 05:41:35;;;;;;;;;11.00;9.67;;;;;13.76;70.50;100929.94;5077986;27;45342;-57
2022/09/25 05:44:05;;;;;;;;;14.67;12.33;;;;;13.65;71.47;100934.25;5077093;27;47607;-55
2022/09/25 05:46:39;;;;;;;;;10.67;9.33;;;;;13.59;71.76;100946.19;5093288;27;45263;-56
2022/09/25 05:49:05;;;;;;;;;14.33;10.00;;;;;13.52;71.73;100947.50;5088590;27;45639;-55
2022/09/25 05:51:31;;;;;;;;;16.33;9.00;;;;;13.54;71.49;100946.50;5078183;27;45725;-55
2022/09/25 05:53:59;;;;;;;;;12.33;10.67;;;;;13.64;71.47;100946.75;5077834;27;46081;-56
2022/09/25 05:56:24;;;;;;;;;10.33;10.00;;;;;13.70;71.17;100938.34;5094341;27;45490;-55
2022/09/25 05:58:51;;;;;;;;;12.00;9.67;;;;;13.64;70.86;100956.56;5080585;27;45431;-55
2022/09/25 06:01:18;;;;;;;;;9.67;9.67;;;;;13.61;71.35;100957.63;5098534;27;45550;-57
2022/09/25 06:03:44;;;;;;;;;7.33;7.00;;;;;13.61;70.92;100956.78;5097860;27;45567;-56
2022/09/25 06:06:09;;;;;;;;;10.00;10.00;;;;;13.55;70.95;100960.72;5106126;27;45196;-56
2022/09/25 06:08:35;;;;;;;;;8.67;6.33;;;;;13.40;71.67;100964.31;5093831;27;45505;-55
2022/09/25 06:11:01;;;;;;;;;7.00;6.33;;;;;13.33;71.40;100963.84;5076606;27;45630;-56
2022/09/25 06:13:29;;;;;;;;;12.67;7.00;;;;;13.32;71.09;100958.59;5082237;27;45545;-56
2022/09/25 06:15:55;;;;;;;;;10.00;8.00;;;;;13.35;71.04;100969.94;5082749;27;46224;-55
2022/09/25 06:18:23;;;;;;;;;10.00;8.00;;;;;13.45;70.33;100978.25;5089316;27;45419;-57
2022/09/25 06:20:49;;;;;;;;;5.67;5.67;;;;;13.32;70.92;100975.47;5092940;27;45353;-56
2022/09/25 06:23:16;;;;;;;;;9.33;7.00;;;;;13.24;70.96;100981.28;5082099;27;46243;-55
2022/09/25 06:25:41;;;;;;;;;9.00;9.00;;;;;13.16;71.01;100972.88;5077546;27;46934;-56
2022/09/25 06:28:09;;;;;;;;;7.00;4.00;;;;;13.17;71.02;100981.72;5083935;27;45408;-55
2022/09/25 06:30:37;;;;;;;;;8.67;6.67;;;;;13.05;71.55;100985.13;5071247;27;45546;-56
2022/09/25 06:33:11;;;;;;;;;6.67;5.00;;;;;13.02;71.07;100983.50;5080733;27;46079;-56
2022/09/25 06:35:41;;;;;;;;;6.00;5.00;;;;;13.06;71.34;100985.03;5075042;27;45523;-56
2022/09/25 06:38:07;;;;;;;;;5.33;5.33;;;;;13.07;71.13;100983.22;5080449;27;45391;-55
2022/09/25 06:40:33;;;;;;;;;5.33;4.00;;;;;13.05;70.73;100977.13;5084162;27;45727;-53
2022/09/25 06:43:04;;;;;;;;;10.00;5.00;;;;;13.06;70.78;100976.19;5082603;27;46109;-56
2022/09/25 06:45:34;;;;;;;;;7.00;7.00;;;;;13.05;70.47;100977.97;5076192;27;45406;-56
2022/09/25 06:48:02;;;;;;;;;9.00;9.00;;;;;13.03;70.84;100979.03;5077273;27;45273;-56
2022/09/25 06:50:35;;;;;;;;;9.00;5.67;;;;;12.89;71.29;100975.38;5078913;27;45509;-56
2022/09/25 06:53:00;;;;;;;;;11.33;8.00;;;;;12.83;71.15;100967.72;5076665;27;46278;-56
2022/09/25 06:55:28;;;;;;;;;5.67;4.00;;;;;12.93;70.93;100974.25;5077301;28;45354;-57
2022/09/25 06:57:53;;;;;;;;;10.33;5.33;;;;;12.98;70.81;100976.63;5078429;27;45421;-56
2022/09/25 07:00:18;;;;;;;;;4.67;4.67;;;;;12.96;70.40;100974.03;5094305;27;45706;-57
2022/09/25 07:05:28;;;;;;;;;8.00;5.00;;;;;13.04;70.15;100972.75;5077211;28;45322;-57
2022/09/25 07:07:54;;;;;;;;;7.33;6.33;;;;;13.08;69.73;100968.94;5094272;27;45439;-56
2022/09/25 07:10:20;;;;;;;;;3.67;3.33;;;;;13.15;69.41;100978.25;5098041;27;45607;-56
2022/09/25 07:12:46;;;;;;;;;6.00;5.33;;;;;13.11;69.56;100980.28;5090645;27;45488;-58
2022/09/25 07:15:12;;;;;;;;;4.00;4.00;;;;;13.16;69.74;100988.88;5082722;27;45252;-55
2022/09/25 07:17:44;;;;;;;;;8.00;4.00;;;;;13.19;69.46;100987.88;5096230;27;45222;-56
2022/09/25 07:20:14;;;;;;;;;9.33;7.00;;;;;13.23;69.25;100994.72;5090797;27;45635;-55
2022/09/25 07:22:40;;;;;;;;;7.33;4.00;;;;;13.27;69.19;100982.91;5087397;27;47047;-53
2022/09/25 07:25:08;;;;;;;;;7.00;4.33;;;;;13.28;68.98;100980.16;5075648;27;45491;-56
2022/09/25 07:27:34;;;;;;;;;7.00;4.33;;;;;13.32;69.24;100985.31;5077890;27;45377;-58
2022/09/25 07:30:00;;;;;;;;;4.67;4.67;;;;;13.35;69.14;100990.47;5074262;27;45445;-56
2022/09/25 07:32:26;;;;;;;;;6.33;6.33;;;;;13.36;69.05;100984.16;5091697;27;47284;-53
2022/09/25 07:34:51;;;;;;;;;7.00;5.00;;;;;13.44;68.80;100995.25;5075801;27;45855;-57
2022/09/25 07:37:17;;;;;;;;;7.33;5.00;;;;;13.50;68.41;100995.72;5077257;28;45334;-61
2022/09/25 07:39:43;;;;;;;;;5.00;5.00;;;;;13.52;68.31;100993.78;5077247;27;46899;-52
2022/09/25 07:42:10;;;;;;;;;8.00;6.33;;;;;13.53;67.94;100997.31;5091289;27;46024;-51
2022/09/25 07:44:35;;;;;;;;;6.33;4.00;;;;;13.55;68.12;101007.00;5076005;27;45508;-49
2022/09/25 07:47:02;;;;;;;;;7.00;7.00;;;;;13.58;68.27;100997.91;5076592;27;45286;-51
2022/09/25 07:49:31;;;;;;;;;4.00;4.00;;;;;13.65;68.24;100998.38;5075330;27;45378;-56
2022/09/25 07:51:56;;;;;;;;;7.00;5.00;;;;;13.66;68.28;101000.94;5076950;27;46322;-53
2022/09/25 07:54:23;;;;;;;;;10.00;6.33;;;;;13.66;68.35;101010.78;5075135;27;45250;-55
2022/09/25 07:56:49;;;;;;;;;4.00;4.00;;;;;13.70;67.86;100998.97;5056851;28;45238;-53
2022/09/25 07:59:14;;;;;;;;;7.33;5.67;;;;;13.77;67.77;101002.97;5062490;27;45466;-54
2022/09/25 08:01:40;;;;;;;;;7.33;4.00;;;;;13.79;67.35;101001.03;5076030;28;45547;-58
2022/09/25 08:04:05;;;;;;;;;4.00;4.00;;;;;13.87;67.11;100998.75;5076104;28;45406;-53
2022/09/25 08:06:34;;;;;;;;;4.00;4.00;;;;;13.94;66.91;101007.28;5074997;28;45541;-58
2022/09/25 08:09:02;;;;;;;;;9.33;5.00;;;;;13.98;66.94;101006.09;5076313;27;45576;-59
2022/09/25 08:11:28;;;;;;;;;5.00;3.00;;;;;14.02;66.82;101002.28;5074753;27;46252;-55
2022/09/25 08:13:53;;;;;;;;;2.67;2.67;;;;;14.07;66.98;101001.03;5076429;27;45591;-53
2022/09/25 08:16:21;;;;;;;;;4.00;3.00;;;;;14.14;66.73;101002.34;5074837;27;45348;-57
2022/09/25 08:18:48;;;;;;;;;4.00;3.00;;;;;14.20;66.09;101010.94;5077772;28;45501;-57
2022/09/25 08:21:16;;;;;;;;;3.00;3.00;;;;;14.24;66.13;101010.66;5074668;27;45457;-54
2022/09/25 08:23:44;;;;;;;;;3.33;3.33;;;;;14.26;66.02;101000.69;5075077;27;45254;-57
2022/09/25 08:26:10;;;;;;;;;6.67;4.00;;;;;14.34;65.74;101006.41;5075769;27;45481;-58
2022/09/25 08:28:35;;;;;;;;;1.33;1.33;;;;;14.34;64.72;101009.09;5070818;27;45450;-57
2022/09/25 08:31:02;;;;;;;;;3.00;3.00;;;;;14.38;64.73;101009.75;5075784;27;46193;-57
2022/09/25 08:33:33;;;;;;;;;3.00;1.00;;;;;14.43;64.18;101012.97;5075950;27;45439;-58
2022/09/25 08:36:01;;;;;;;;;5.00;3.00;;;;;14.48;64.94;101000.19;5076220;27;45242;-55
2022/09/25 08:38:27;;;;;;;;;4.00;3.00;;;;;14.54;63.97;101005.13;5076652;27;45446;-55
2022/09/25 08:40:58;;;;;;;;;6.00;5.00;;;;;14.69;63.96;101004.09;5091549;27;46071;-55
2022/09/25 08:43:25;;;;;;;;;2.00;2.00;;;;;14.85;63.48;101003.09;5075666;27;45285;-59
2022/09/25 08:49:08;;;;;;;;;9.00;5.33;;;;;15.28;61.73;101001.88;5079582;28;45443;-55
2022/09/25 08:51:37;;;;;;;;;3.33;2.00;;;;;15.47;60.31;100997.91;5076633;27;46683;-48
2022/09/25 08:54:04;;;;;;;;;1.33;1.33;;;;;15.60;60.60;100996.13;5078864;27;45192;-53
2022/09/25 08:56:32;;;;;;;;;1.33;1.00;;;;;15.88;59.08;100993.19;5077312;27;45581;-53
2022/09/25 08:59:22;;;;;;;;;6.00;3.00;;;;;16.08;58.54;100996.28;5113110;27;45495;-49
2022/09/25 09:01:54;;;;;;;;;4.00;3.00;;;;;16.25;58.13;101001.25;5092576;27;45474;-48
2022/09/25 09:04:37;;;;;;;;;1.00;1.00;;;;;16.43;56.88;100997.22;5091761;27;45447;-54
2022/09/25 09:07:18;;;;;;;;;1.00;1.00;;;;;16.69;56.39;100995.31;5079346;27;45496;-56
2022/09/25 09:09:54;;;;;;;;;2.33;2.33;;;;;16.96;55.45;100980.78;5077889;27;45402;-54
2022/09/25 09:12:30;;;;;;;;;2.00;2.00;;;;;17.06;53.91;100990.69;5062577;27;45490;-58
2022/09/25 09:15:10;;;;;;;;;1.00;1.00;;;;;17.10;52.93;100991.31;5058936;27;45263;-57
2022/09/25 09:17:41;;;;;;;;;1.00;1.00;;;;;17.24;53.03;100998.31;5072532;28;45227;-62
2022/09/25 09:20:18;;;;;;;;;1.00;1.00;;;;;17.39;52.10;100997.09;5079091;27;45868;-61
2022/09/25 09:22:50;;;;;;;;;3.67;2.00;;;;;17.60;53.68;100999.97;5077003;27;46206;-59
2022/09/25 09:25:42;;;;;;;;;2.00;2.00;;;;;17.77;50.98;100995.94;5078182;27;45479;-56
2022/09/25 09:28:47;;;;;;;;;0.00;0.00;;;;;17.79;50.70;100999.38;5074498;28;45614;-52
2022/09/25 09:31:24;;;;;;;;;1.00;1.00;;;;;17.86;50.57;101004.16;5054352;27;45456;-50
2022/09/25 09:33:52;;;;;;;;;0.00;0.00;;;;;17.90;49.56;101002.06;5092787;27;46396;-53
2022/09/25 09:36:51;;;;;;;;;1.00;1.00;;;;;17.82;48.98;100997.28;5078467;28;45424;-56
2022/09/25 09:39:27;;;;;;;;;2.00;1.00;;;;;17.95;48.10;100989.94;5063247;27;45537;-63
2022/09/25 09:42:08;;;;;;;;;0.00;0.00;;;;;17.85;46.95;100990.84;5091650;27;45300;-54
2022/09/25 09:44:42;;;;;;;;;1.00;1.00;;;;;17.71;46.91;100993.72;5075936;28;45381;-53
2022/09/25 09:47:21;;;;;;;;;0.00;0.00;;;;;17.75;47.23;100995.22;5076083;28;45437;-54
2022/09/25 09:49:52;;;;;;;;;3.00;1.33;;;;;17.82;48.25;100993.75;5078049;27;45232;-52
2022/09/25 09:52:40;;;;;;;;;1.00;1.00;;;;;17.78;47.81;100994.97;5076015;27;44813;-59
2022/09/25 09:55:40;;;;;;;;;1.67;0.67;;;;;17.68;47.35;101002.88;5076088;27;45443;-50
2022/09/25 09:58:24;;;;;;;;;0.33;0.33;;;;;17.61;47.65;100994.44;5091053;27;45425;-58
2022/09/25 10:00:51;;;;;;;;;0.00;0.00;;;;;17.65;47.94;100993.22;5075318;28;45469;-53
2022/09/25 10:03:26;;;;;;;;;1.67;1.00;;;;;17.68;49.37;100986.75;5077450;28;45523;-53
2022/09/25 10:05:57;;;;;;;;;0.00;0.00;;;;;17.76;48.29;100999.63;5075116;27;46185;-53
2022/09/25 10:08:22;;;;;;;;;0.00;0.00;;;;;17.74;47.93;100991.69;5094094;27;45340;-56
2022/09/25 10:10:55;;;;;;;;;0.00;0.00;;;;;17.75;48.17;100997.91;5074342;27;45234;-52
2022/09/25 10:13:31;;;;;;;;;2.00;0.00;;;;;17.70;47.14;100984.81;5090144;27;45184;-56
2022/09/25 10:16:10;;;;;;;;;1.00;1.00;;;;;17.74;47.70;100994.38;5103852;27;48241;-54
2022/09/25 10:19:05;;;;;;;;;1.00;1.00;;;;;17.85;48.84;100990.84;5090310;27;45385;-54
2022/09/25 10:21:40;;;;;;;;;0.00;0.00;;;;;17.85;46.82;100982.75;5077246;27;45535;-59
2022/09/25 10:24:06;;;;;;;;;0.67;0.67;;;;;17.88;47.47;100977.97;5097882;27;45320;-58
2022/09/25 10:26:35;;;;;;;;;3.67;2.00;;;;;17.94;46.04;100976.59;5114969;27;45349;-53
2022/09/25 10:29:04;;;;;;;;;1.00;1.00;;;;;17.90;45.66;100977.84;5101531;27;45527;-48
2022/09/25 10:31:33;;;;;;;;;0.00;0.00;;;;;17.82;45.90;100974.91;5094916;27;45313;-55
2022/09/25 10:34:04;;;;;;;;;1.00;1.00;;;;;17.91;46.02;100987.63;5095736;27;45341;-58
2022/09/25 10:36:51;;;;;;;;;1.00;1.00;;;;;17.96;46.26;100972.81;5098141;27;45288;-55
2022/09/25 10:39:33;;;;;;;;;1.00;1.00;;;;;18.04;46.41;100976.72;5094438;27;45398;-52
2022/09/25 10:42:07;;;;;;;;;2.00;2.00;;;;;18.18;45.44;100971.94;5075640;27;45342;-55
2022/09/25 10:44:37;;;;;;;;;1.67;1.00;;;;;18.31;44.89;100965.53;5073787;27;45375;-56
2022/09/25 10:50:20;;;;;;;;;0.33;0.33;;;;;18.38;44.41;100958.69;5085207;27;45743;-55
2022/09/25 10:52:52;;;;;;;;;2.67;1.00;;;;;18.49;44.75;100958.63;5091697;27;45505;-59
2022/09/25 10:55:29;;;;;;;;;1.00;1.00;;;;;18.62;43.54;100956.63;5077378;27;45362;-57
2022/09/25 10:58:09;;;;;;;;;1.00;1.00;;;;;18.75;44.39;100957.34;5083695;27;46336;-56
2022/09/25 11:00:42;;;;;;;;;1.67;1.00;;;;;18.92;42.76;100964.00;5081912;27;45358;-57
2022/09/25 11:03:19;;;;;;;;;0.67;0.67;;;;;19.02;43.45;100959.53;5071369;27;45628;-59
2022/09/25 11:05:53;;;;;;;;;1.00;1.00;;;;;19.09;42.19;100965.22;5092140;27;45596;-59
2022/09/25 11:08:22;;;;;;;;;1.00;1.00;;;;;19.11;42.04;100963.25;5072614;27;46001;-55
2022/09/25 11:10:56;;;;;;;;;0.00;0.00;;;;;19.25;41.64;100967.47;5088469;27;45563;-60
2022/09/25 11:13:35;;;;;;;;;0.00;0.00;;;;;19.29;42.02;100960.84;5073416;27;45528;-54
2022/09/25 11:16:03;;;;;;;;;1.00;1.00;;;;;19.50;41.06;100968.88;5074623;27;45808;-54
2022/09/25 11:18:43;;;;;;;;;1.33;1.00;;;;;19.68;41.72;100956.53;5078864;27;46604;-56
2022/09/25 11:21:24;;;;;;;;;1.00;1.00;;;;;19.82;41.67;100975.03;5076187;27;45421;-57
2022/09/25 11:24:03;;;;;;;;;2.00;1.00;;;;;19.78;40.79;100962.78;5070529;28;45401;-56
2022/09/25 11:26:37;;;;;;;;;2.00;0.00;;;;;19.90;40.79;100959.00;5092790;27;45481;-54
2022/09/25 11:29:18;;;;;;;;;2.00;0.33;;;;;20.03;41.86;100972.25;5076842;27;47470;-57
2022/09/25 11:31:51;;;;;;;;;1.00;1.00;;;;;20.02;40.40;100973.25;5075908;28;45321;-57
2022/09/25 11:34:28;;;;;;;;;1.00;1.00;;;;;20.12;42.54;100976.84;5076591;28;45193;-57
2022/09/25 11:37:25;;;;;;;;;0.00;0.00;;;;;20.30;39.53;100974.31;5076692;27;45440;-58
2022/09/25 11:43:05;;;;;;;;;1.00;1.00;;;;;20.59;39.67;100969.84;5076747;27;45346;-55
2022/09/25 11:45:41;;;;;;;;;1.00;1.00;;;;;20.71;40.24;100962.47;5077137;27;45453;-56
2022/09/25 11:48:21;;;;;;;;;1.00;1.00;;;;;20.75;37.89;100969.28;5076781;28;45340;-55
2022/09/25 11:50:59;;;;;;;;;1.00;1.00;;;;;20.75;38.31;100957.59;5076144;27;45434;-57
2022/09/25 11:53:40;;;;;;;;;2.33;2.00;;;;;20.92;37.76;100962.28;5076678;28;45792;-58
2022/09/25 11:56:24;;;;;;;;;0.00;0.00;;;;;20.92;38.11;100954.19;5075769;28;45279;-55